createdAt,value
2023-03-15T00:00:55.542Z,5.20
2023-03-15T00:03:25.639Z,5.30
2023-03-15T00:05:53.820Z,5.20
2023-03-15T00:08:23.045Z,5.10
2023-03-15T00:10:51.180Z,5.20
2023-03-15T00:13:19.310Z,5.10
2023-03-15T00:15:51.020Z,5.00
2023-03-15T00:18:21.109Z,4.90
2023-03-15T00:20:49.559Z,4.90
2023-03-15T00:23:18.462Z,4.70
2023-03-15T00:25:50.191Z,4.80
2023-03-15T00:28:18.744Z,4.70
2023-03-15T00:30:48.959Z,4.60
2023-03-15T00:33:17.583Z,4.50
2023-03-15T00:35:46.717Z,4.50
2023-03-15T00:38:15.273Z,4.50
2023-03-15T00:40:43.633Z,4.30
2023-03-15T00:43:12.090Z,4.30
2023-03-15T00:45:40.630Z,4.20
2023-03-15T00:48:11.136Z,4.30
2023-03-15T00:50:39.494Z,4.30
2023-03-15T00:53:07.956Z,4.40
2023-03-15T00:55:37.135Z,4.50
2023-03-15T00:58:05.525Z,4.60
2023-03-15T01:00:33.785Z,4.60
2023-03-15T01:03:02.202Z,4.70
2023-03-15T01:05:32.447Z,4.80
2023-03-15T01:08:03.389Z,4.80
2023-03-15T01:10:31.670Z,4.80
2023-03-15T01:13:00.041Z,4.80
2023-03-15T01:15:28.543Z,5.00
2023-03-15T01:17:57.878Z,5.00
2023-03-15T01:20:26.076Z,5.00
2023-03-15T01:22:55.946Z,5.10
2023-03-15T01:25:24.289Z,5.20
2023-03-15T01:27:52.733Z,5.20
2023-03-15T01:30:21.434Z,5.20
2023-03-15T01:32:49.574Z,5.20
2023-03-15T01:35:18.099Z,5.30
2023-03-15T01:37:46.487Z,5.10
2023-03-15T01:40:16.321Z,5.00
2023-03-15T01:43:13.513Z,5.00
2023-03-15T01:46:02.759Z,5.10
2023-03-15T01:48:37.062Z,5.20
2023-03-15T01:51:11.312Z,5.20
2023-03-15T01:53:44.459Z,5.30
2023-03-15T01:56:14.549Z,5.30
2023-03-15T01:58:45.064Z,5.40
2023-03-15T02:01:14.564Z,5.40
2023-03-15T02:03:48.060Z,5.40
2023-03-15T02:06:19.918Z,5.40
2023-03-15T02:08:53.054Z,5.40
2023-03-15T02:11:25.905Z,5.40
2023-03-15T02:13:55.948Z,5.40
2023-03-15T02:16:26.071Z,5.40
2023-03-15T02:18:54.678Z,5.30
2023-03-15T02:21:34.764Z,5.20
2023-03-15T02:24:13.014Z,5.20
2023-03-15T02:26:46.540Z,5.20
2023-03-15T02:29:16.563Z,5.20
2023-03-15T02:31:45.127Z,5.30
2023-03-15T02:34:13.294Z,5.40
2023-03-15T02:36:42.172Z,5.40
2023-03-15T02:39:17.616Z,5.50
2023-03-15T02:41:50.961Z,5.60
2023-03-15T02:44:24.624Z,5.50
2023-03-15T02:46:54.003Z,5.50
2023-03-15T02:49:24.974Z,5.60
2023-03-15T02:51:53.147Z,5.60
2023-03-15T02:54:21.606Z,5.60
2023-03-15T02:56:49.983Z,5.60
2023-03-15T02:59:18.401Z,5.50
2023-03-15T03:01:48.003Z,5.60
2023-03-15T03:04:16.502Z,5.60
2023-03-15T03:06:45.290Z,5.70
2023-03-15T03:09:13.483Z,5.60
2023-03-15T03:11:41.909Z,5.70
2023-03-15T03:14:10.285Z,5.70
2023-03-15T03:16:38.436Z,5.70
2023-03-15T03:19:08.586Z,5.60
2023-03-15T03:21:37.062Z,5.60
2023-03-15T03:24:05.268Z,5.60
2023-03-15T03:26:33.825Z,5.60
2023-03-15T03:29:02.265Z,5.50
2023-03-15T03:31:33.714Z,5.40
2023-03-15T03:34:02.066Z,5.50
2023-03-15T03:36:31.962Z,5.40
2023-03-15T03:39:00.114Z,5.50
2023-03-15T03:41:28.911Z,5.50
2023-03-15T03:43:57.177Z,5.60
2023-03-15T03:46:25.339Z,5.60
2023-03-15T03:48:53.634Z,5.50
2023-03-15T03:51:21.873Z,5.50
2023-03-15T03:53:51.402Z,5.50
2023-03-15T03:56:19.966Z,5.50
2023-03-15T03:58:48.441Z,5.60
2023-03-15T04:01:16.653Z,5.60
2023-03-15T04:03:45.373Z,5.50
2023-03-15T04:06:13.678Z,5.50
2023-03-15T04:08:42.206Z,5.50
2023-03-15T04:11:12.004Z,5.50
2023-03-15T04:13:40.452Z,5.50
2023-03-15T04:16:09.451Z,5.60
2023-03-15T04:18:37.761Z,5.40
2023-03-15T04:21:11.155Z,5.40
2023-03-15T04:23:39.966Z,5.30
2023-03-15T04:26:08.108Z,5.40
2023-03-15T04:28:39.316Z,5.30
2023-03-15T04:31:10.670Z,5.30
2023-03-15T04:33:38.884Z,5.30
2023-03-15T04:36:08.017Z,5.30
2023-03-15T04:38:36.320Z,5.30
2023-03-15T04:41:11.154Z,5.30
2023-03-15T04:43:40.945Z,5.40
2023-03-15T04:46:09.578Z,5.40
2023-03-15T04:48:38.282Z,5.40
2023-03-15T04:51:06.743Z,5.30
2023-03-15T04:53:35.101Z,5.30
2023-03-15T04:56:04.839Z,5.30
2023-03-15T04:58:33.313Z,5.30
2023-03-15T05:01:03.169Z,5.40
2023-03-15T05:03:31.704Z,5.40
2023-03-15T05:05:59.907Z,5.40
2023-03-15T05:08:28.137Z,5.30
2023-03-15T05:10:56.590Z,5.30
2023-03-15T05:13:24.778Z,5.20
2023-03-15T05:15:53.424Z,5.20
2023-03-15T05:18:23.606Z,5.20
2023-03-15T05:20:51.955Z,5.20
2023-03-15T05:23:20.360Z,5.10
2023-03-15T05:25:54.131Z,5.10
2023-03-15T05:28:23.653Z,5.00
2023-03-15T05:30:52.280Z,5.10
2023-03-15T05:33:21.046Z,5.10
2023-03-15T05:35:50.621Z,5.00
2023-03-15T05:38:18.813Z,4.90
2023-03-15T05:40:48.437Z,4.90
2023-03-15T05:43:16.566Z,4.90
2023-03-15T05:45:47.210Z,4.90
2023-03-15T05:48:15.583Z,4.80
2023-03-15T05:50:43.775Z,4.70
2023-03-15T05:53:13.577Z,4.70
2023-03-15T05:55:42.062Z,4.60
2023-03-15T05:58:10.433Z,4.60
2023-03-15T06:00:38.709Z,4.60
2023-03-15T06:03:07.166Z,4.60
2023-03-15T06:05:35.394Z,4.60
2023-03-15T06:08:03.533Z,4.60
2023-03-15T06:10:33.876Z,4.60
2023-03-15T06:13:02.281Z,4.60
2023-03-15T06:15:30.557Z,4.70
2023-03-15T06:17:58.744Z,4.70
2023-03-15T06:20:27.389Z,4.60
2023-03-15T06:22:55.556Z,4.50
2023-03-15T06:25:24.336Z,4.50
2023-03-15T06:27:53.887Z,4.50
2023-03-15T06:30:22.169Z,4.60
2023-03-15T06:32:50.568Z,4.60
2023-03-15T06:35:18.985Z,4.80
2023-03-15T06:37:47.126Z,5.00
2023-03-15T06:40:15.537Z,5.30
2023-03-15T06:42:43.983Z,5.50
2023-03-15T06:45:13.682Z,5.80
2023-03-15T06:47:41.826Z,6.30
2023-03-15T06:50:12.004Z,6.70
2023-03-15T06:52:40.274Z,7.10
2023-03-15T06:55:10.305Z,7.50
2023-03-15T06:57:38.699Z,7.80
2023-03-15T07:00:11.300Z,8.00
2023-03-15T07:02:41.492Z,8.20
2023-03-15T07:05:11.096Z,8.40
2023-03-15T07:07:39.466Z,8.60
2023-03-15T07:10:08.337Z,8.90
2023-03-15T07:12:36.483Z,9.20
2023-03-15T07:15:04.984Z,9.40
2023-03-15T07:17:33.243Z,9.70
2023-03-15T07:20:03.074Z,10.00
2023-03-15T07:22:31.200Z,10.30
2023-03-15T07:24:59.710Z,10.60
2023-03-15T07:27:27.934Z,10.80
2023-03-15T07:29:56.523Z,11.10
2023-03-15T07:32:24.883Z,11.70
2023-03-15T07:34:54.909Z,12.10
2023-03-15T07:37:24.459Z,12.60
2023-03-15T07:39:53.019Z,13.00
2023-03-15T07:42:21.222Z,13.40
2023-03-15T07:44:49.359Z,13.70
2023-03-15T07:47:17.670Z,14.00
2023-03-15T07:49:45.791Z,14.30
2023-03-15T07:52:14.056Z,14.50
2023-03-15T07:54:44.116Z,14.70
2023-03-15T07:57:12.598Z,14.90
2023-03-15T07:59:40.797Z,15.00
2023-03-15T08:02:11.233Z,15.10
2023-03-15T08:04:39.431Z,15.00
2023-03-15T08:07:08.206Z,15.20
2023-03-15T08:09:36.899Z,15.40
2023-03-15T08:12:06.960Z,15.40
2023-03-15T08:14:35.123Z,15.60
2023-03-15T08:17:03.722Z,15.70
2023-03-15T08:19:31.995Z,15.80
2023-03-15T08:22:00.176Z,15.90
2023-03-15T08:24:28.503Z,16.10
2023-03-15T08:26:56.845Z,16.40
2023-03-15T08:29:26.405Z,16.60
2023-03-15T08:31:54.878Z,16.80
2023-03-15T08:34:23.295Z,16.80
2023-03-15T08:36:51.794Z,17.10
2023-03-15T08:39:20.241Z,17.30
2023-03-15T08:41:50.385Z,17.50
2023-03-15T08:44:18.675Z,17.30
2023-03-15T08:46:48.536Z,17.20
2023-03-15T08:49:17.016Z,17.20
2023-03-15T08:51:45.618Z,17.00
2023-03-15T08:54:14.410Z,17.10
2023-03-15T08:56:42.923Z,17.40
2023-03-15T08:59:19.243Z,17.70
2023-03-15T09:01:53.923Z,17.60
2023-03-15T09:04:22.378Z,17.60
2023-03-15T09:06:50.776Z,17.60
2023-03-15T09:09:19.362Z,17.30
2023-03-15T09:11:47.487Z,16.50
2023-03-15T09:14:15.897Z,16.40
2023-03-15T09:16:44.324Z,16.60
2023-03-15T09:19:13.938Z,17.10
2023-03-15T09:21:44.799Z,17.00
2023-03-15T09:24:13.826Z,17.20
2023-03-15T09:26:42.229Z,17.50
2023-03-15T09:29:10.389Z,17.60
2023-03-15T09:31:39.038Z,17.50
2023-03-15T09:34:07.859Z,17.90
2023-03-15T09:36:37.530Z,18.10
2023-03-15T09:39:06.372Z,18.30
2023-03-15T09:41:43.963Z,18.30
2023-03-15T09:44:23.324Z,18.00
2023-03-15T09:47:05.599Z,17.50
2023-03-15T09:49:40.811Z,17.60
2023-03-15T09:52:22.741Z,17.60
2023-03-15T09:54:56.148Z,17.60
2023-03-15T09:57:29.975Z,17.80
2023-03-15T10:00:00.327Z,17.70
2023-03-15T10:02:31.430Z,17.20
2023-03-15T10:05:06.012Z,16.70
2023-03-15T10:07:37.035Z,16.10
2023-03-15T10:10:08.276Z,15.30
2023-03-15T10:12:42.122Z,14.70
2023-03-15T10:15:27.475Z,14.40
2023-03-15T10:18:19.204Z,14.20
2023-03-15T10:20:56.082Z,14.10
2023-03-15T10:23:37.094Z,14.00
2023-03-15T10:26:09.826Z,13.90
2023-03-15T10:28:39.390Z,14.00
2023-03-15T10:31:21.532Z,14.30
2023-03-15T10:33:55.964Z,14.70
2023-03-15T10:36:26.047Z,15.30
2023-03-15T10:38:56.239Z,15.70
2023-03-15T10:41:39.951Z,16.10
2023-03-15T10:44:13.195Z,16.60
2023-03-15T10:46:41.564Z,17.00
2023-03-15T10:49:14.714Z,17.20
2023-03-15T10:51:44.965Z,17.40
2023-03-15T10:54:17.789Z,17.20
2023-03-15T10:56:49.151Z,17.20
2023-03-15T10:59:20.035Z,17.30
2023-03-15T11:01:49.781Z,17.30
2023-03-15T11:04:20.426Z,17.40
2023-03-15T11:06:51.112Z,17.70
2023-03-15T11:09:23.852Z,17.90
2023-03-15T11:12:00.775Z,17.90
2023-03-15T11:14:35.988Z,18.10
2023-03-15T11:17:07.147Z,18.30
2023-03-15T11:19:42.318Z,18.50
2023-03-15T11:22:14.933Z,18.60
2023-03-15T11:24:44.669Z,18.50
2023-03-15T11:27:15.529Z,18.60
2023-03-15T11:29:48.285Z,18.70
2023-03-15T11:32:19.867Z,18.50
2023-03-15T11:34:54.643Z,18.00
2023-03-15T11:37:25.955Z,17.90
2023-03-15T11:40:11.192Z,17.60
2023-03-15T11:42:45.653Z,16.80
2023-03-15T11:45:20.505Z,16.40
2023-03-15T11:47:54.429Z,16.00
2023-03-15T11:50:23.305Z,15.60
2023-03-15T11:52:52.883Z,15.60
2023-03-15T11:55:26.288Z,15.50
2023-03-15T11:57:55.317Z,15.60
2023-03-15T12:00:52.078Z,15.60
2023-03-15T12:03:41.721Z,15.50
2023-03-15T12:06:38.503Z,15.40
2023-03-15T12:09:41.092Z,15.10
2023-03-15T12:12:38.303Z,15.50
2023-03-15T12:15:16.949Z,15.60
2023-03-15T12:17:47.109Z,16.10
2023-03-15T12:20:23.548Z,16.60
2023-03-15T12:22:54.689Z,16.80
2023-03-15T12:25:33.862Z,16.70
2023-03-15T12:28:08.953Z,16.30
2023-03-15T12:30:42.262Z,16.30
2023-03-15T12:33:16.880Z,16.50
2023-03-15T12:35:45.636Z,16.80
2023-03-15T12:38:18.300Z,17.00
2023-03-15T12:40:52.890Z,17.00
2023-03-15T12:43:38.317Z,16.80
2023-03-15T12:46:07.143Z,16.50
2023-03-15T12:48:35.600Z,16.40
2023-03-15T12:51:14.915Z,16.20
2023-03-15T12:53:52.109Z,16.20
2023-03-15T12:56:46.488Z,16.20
2023-03-15T12:59:23.895Z,16.10
2023-03-15T13:01:53.512Z,16.20
2023-03-15T13:04:23.039Z,16.00
2023-03-15T13:07:09.447Z,15.60
2023-03-15T13:09:54.925Z,15.70
2023-03-15T13:12:30.328Z,15.60
2023-03-15T13:15:04.671Z,15.40
2023-03-15T13:17:41.686Z,15.00
2023-03-15T13:20:24.620Z,14.90
2023-03-15T13:23:04.850Z,14.90
2023-03-15T13:25:37.899Z,14.90
2023-03-15T13:28:15.754Z,14.70
2023-03-15T13:30:48.955Z,14.80
2023-03-15T13:33:22.929Z,14.50
2023-03-15T13:35:57.207Z,14.60
2023-03-15T13:38:28.585Z,14.50
2023-03-15T13:40:57.670Z,14.40
2023-03-15T13:43:28.419Z,14.20
2023-03-15T13:46:00.750Z,14.30
2023-03-15T13:48:31.050Z,14.40
2023-03-15T13:51:05.444Z,14.40
2023-03-15T13:53:48.936Z,14.70
2023-03-15T13:56:21.004Z,14.90
2023-03-15T13:58:52.087Z,15.10
2023-03-15T14:01:23.494Z,15.10
2023-03-15T14:03:57.780Z,15.30
2023-03-15T14:06:28.119Z,15.50
2023-03-15T14:09:02.152Z,15.50
2023-03-15T14:11:37.590Z,15.60
2023-03-15T14:14:23.671Z,15.70
2023-03-15T14:17:04.883Z,15.70
2023-03-15T14:19:35.750Z,15.70
2023-03-15T14:22:06.370Z,15.70
2023-03-15T14:24:38.395Z,15.70
2023-03-15T14:27:10.573Z,15.30
2023-03-15T14:29:41.031Z,14.90
2023-03-15T14:32:26.043Z,14.70
2023-03-15T14:35:00.934Z,14.40
2023-03-15T14:37:33.348Z,14.00
2023-03-15T14:40:20.991Z,14.00
2023-03-15T14:42:50.480Z,13.90
2023-03-15T14:45:22.298Z,13.70
2023-03-15T14:47:57.706Z,13.50
2023-03-15T14:50:28.311Z,13.30
2023-03-15T14:52:58.672Z,13.20
2023-03-15T14:55:33.759Z,13.20
2023-03-15T14:58:02.511Z,13.20
2023-03-15T15:00:31.251Z,13.40
2023-03-15T15:03:01.507Z,13.40
2023-03-15T15:05:31.292Z,13.50
2023-03-15T15:08:05.194Z,13.50
2023-03-15T15:10:35.147Z,13.50
2023-03-15T15:13:06.822Z,13.60
2023-03-15T15:15:51.754Z,13.70
2023-03-15T15:18:25.285Z,13.70
2023-03-15T15:20:56.238Z,13.60
2023-03-15T15:23:28.161Z,13.30
2023-03-15T15:25:59.370Z,13.20
2023-03-15T15:28:37.479Z,13.10
2023-03-15T15:31:07.874Z,13.10
2023-03-15T15:33:37.816Z,13.10
2023-03-15T15:36:12.451Z,12.90
2023-03-15T15:38:40.686Z,12.80
2023-03-15T15:41:17.341Z,12.80
2023-03-15T15:43:45.536Z,12.70
2023-03-15T15:46:14.802Z,12.60
2023-03-15T15:48:44.970Z,12.60
2023-03-15T15:51:22.311Z,12.60
2023-03-15T15:53:51.030Z,12.60
2023-03-15T15:56:19.518Z,12.40
2023-03-15T15:58:48.115Z,12.40
2023-03-15T16:01:17.177Z,12.20
2023-03-15T16:03:47.052Z,12.10
2023-03-15T16:06:19.174Z,12.00
2023-03-15T16:08:50.189Z,11.90
2023-03-15T16:11:19.498Z,11.90
2023-03-15T16:13:50.723Z,11.90
2023-03-15T16:16:19.697Z,11.80
2023-03-15T16:18:49.282Z,11.80
2023-03-15T16:21:22.078Z,11.70
2023-03-15T16:23:56.728Z,11.60
2023-03-15T16:26:25.703Z,11.50
2023-03-15T16:28:53.876Z,11.40
2023-03-15T16:31:23.271Z,11.50
2023-03-15T16:33:53.147Z,11.30
2023-03-15T16:36:23.334Z,11.20
2023-03-15T16:38:51.536Z,11.20
2023-03-15T16:41:19.971Z,11.20
2023-03-15T16:43:49.437Z,11.20
2023-03-15T16:46:18.387Z,11.20
2023-03-15T16:48:46.826Z,11.30
2023-03-15T16:51:17.358Z,11.30
2023-03-15T16:53:45.824Z,11.20
2023-03-15T16:56:15.659Z,11.30
2023-03-15T16:58:45.351Z,11.10
2023-03-15T17:01:14.071Z,11.10
2023-03-15T17:03:42.870Z,11.10
2023-03-15T17:06:20.283Z,11.10
2023-03-15T17:08:49.431Z,11.10
2023-03-15T17:11:19.089Z,11.10
2023-03-15T17:13:47.395Z,10.90
2023-03-15T17:16:16.870Z,11.00
2023-03-15T17:18:47.700Z,10.70
2023-03-15T17:21:21.248Z,10.60
2023-03-15T17:23:52.587Z,10.60
2023-03-15T17:26:23.517Z,10.60
2023-03-15T17:28:52.649Z,10.50
2023-03-15T17:31:25.627Z,10.30
2023-03-15T17:33:54.868Z,10.20
2023-03-15T17:36:26.557Z,10.20
2023-03-15T17:38:56.028Z,10.10
2023-03-15T17:41:28.160Z,10.00
2023-03-15T17:43:57.884Z,9.90
2023-03-15T17:46:30.264Z,9.80
2023-03-15T17:48:59.757Z,9.80
2023-03-15T17:51:31.995Z,9.70
2023-03-15T17:54:02.022Z,9.70
2023-03-15T17:56:34.432Z,9.70
2023-03-15T17:59:03.620Z,9.70
2023-03-15T18:01:33.221Z,9.60
2023-03-15T18:04:02.111Z,9.50
2023-03-15T18:06:34.862Z,9.40
2023-03-15T18:09:06.112Z,9.40
2023-03-15T18:11:37.346Z,9.50
2023-03-15T18:14:06.499Z,9.50
2023-03-15T18:16:35.871Z,9.50
2023-03-15T18:19:05.953Z,9.50
2023-03-15T18:21:36.190Z,9.40
2023-03-15T18:24:05.087Z,9.20
2023-03-15T18:26:33.845Z,9.10
2023-03-15T18:29:02.412Z,9.00
2023-03-15T18:31:31.043Z,8.90
2023-03-15T18:34:00.824Z,9.00
2023-03-15T18:36:29.450Z,9.00
2023-03-15T18:38:59.328Z,9.00
2023-03-15T18:41:28.063Z,9.00
2023-03-15T18:43:56.537Z,9.00
2023-03-15T18:46:26.989Z,8.90
2023-03-15T18:48:55.993Z,8.90
2023-03-15T18:51:28.146Z,9.00
2023-03-15T18:53:58.434Z,8.90
2023-03-15T18:56:30.896Z,8.90
2023-03-15T18:58:59.287Z,8.90
2023-03-15T19:01:29.041Z,8.80
2023-03-15T19:03:57.358Z,8.80
2023-03-15T19:06:26.812Z,8.70
2023-03-15T19:08:55.309Z,8.60
2023-03-15T19:11:26.946Z,8.60
2023-03-15T19:13:55.322Z,8.50
2023-03-15T19:16:24.594Z,8.60
2023-03-15T19:18:53.760Z,8.70
2023-03-15T19:21:22.045Z,8.60
2023-03-15T19:23:50.343Z,8.60
2023-03-15T19:26:18.575Z,8.70
2023-03-15T19:28:48.385Z,8.60
2023-03-15T19:31:19.150Z,8.60
2023-03-15T19:33:47.658Z,8.60
2023-03-15T19:36:16.640Z,8.60
2023-03-15T19:38:45.237Z,8.50
2023-03-15T19:41:14.299Z,8.40
2023-03-15T19:43:43.669Z,8.40
2023-03-15T19:46:15.690Z,8.40
2023-03-15T19:48:43.946Z,8.40
2023-03-15T19:51:12.647Z,8.40
2023-03-15T19:53:41.032Z,8.20
2023-03-15T19:56:10.739Z,8.10
2023-03-15T19:58:39.570Z,8.20
2023-03-15T20:01:07.940Z,7.80
2023-03-15T20:03:37.601Z,7.80
2023-03-15T20:06:08.317Z,7.80
2023-03-15T20:08:36.772Z,7.90
2023-03-15T20:11:06.663Z,7.70
2023-03-15T20:13:36.026Z,7.80
2023-03-15T20:16:06.001Z,7.80
2023-03-15T20:18:34.251Z,7.70
2023-03-15T20:21:04.177Z,7.70
2023-03-15T20:23:33.528Z,7.70
2023-03-15T20:26:06.836Z,7.80
2023-03-15T20:28:35.514Z,7.60
2023-03-15T20:31:08.861Z,7.80
2023-03-15T20:33:37.255Z,7.80
2023-03-15T20:36:07.670Z,7.80
2023-03-15T20:38:37.459Z,7.80
2023-03-15T20:41:06.607Z,7.90
2023-03-15T20:43:35.288Z,7.80
2023-03-15T20:46:04.750Z,7.90
2023-03-15T20:48:36.020Z,7.80
2023-03-15T20:51:05.638Z,7.80
2023-03-15T20:53:36.953Z,7.70
2023-03-15T20:56:06.455Z,7.50
2023-03-15T20:58:35.482Z,7.40
2023-03-15T21:01:05.930Z,7.50
2023-03-15T21:03:35.515Z,7.30
2023-03-15T21:06:06.513Z,7.40
2023-03-15T21:08:37.668Z,7.40
2023-03-15T21:11:07.569Z,7.30
2023-03-15T21:13:36.907Z,7.30
2023-03-15T21:16:06.087Z,7.40
2023-03-15T21:18:39.585Z,7.50
2023-03-15T21:21:09.683Z,7.50
2023-03-15T21:23:40.342Z,7.50
2023-03-15T21:26:12.773Z,7.50
2023-03-15T21:28:42.584Z,7.60
2023-03-15T21:31:12.243Z,7.50
2023-03-15T21:33:43.822Z,7.60
2023-03-15T21:36:13.045Z,7.50
2023-03-15T21:38:43.569Z,7.50
2023-03-15T21:41:12.484Z,7.40
2023-03-15T21:43:41.885Z,7.40
2023-03-15T21:46:15.442Z,7.40
2023-03-15T21:48:44.085Z,7.50
2023-03-15T21:51:14.683Z,7.50
2023-03-15T21:53:46.363Z,7.40
2023-03-15T21:56:14.758Z,7.40
2023-03-15T21:58:43.153Z,7.40
2023-03-15T22:01:14.143Z,7.50
2023-03-15T22:03:44.322Z,7.50
2023-03-15T22:06:13.656Z,7.40
2023-03-15T22:08:42.824Z,7.60
2023-03-15T22:11:12.418Z,7.50
2023-03-15T22:13:41.786Z,7.40
2023-03-15T22:16:10.714Z,7.50
2023-03-15T22:18:38.911Z,7.50
2023-03-15T22:21:07.717Z,7.50
2023-03-15T22:23:36.013Z,7.40
2023-03-15T22:26:04.283Z,7.40
2023-03-15T22:28:35.261Z,7.40
2023-03-15T22:31:03.606Z,7.30
2023-03-15T22:33:31.880Z,7.30
2023-03-15T22:36:03.430Z,7.30
2023-03-15T22:38:37.756Z,7.30
2023-03-15T22:41:07.692Z,7.30
2023-03-15T22:43:38.962Z,7.30
2023-03-15T22:46:07.739Z,7.40
2023-03-15T22:48:36.316Z,7.30
2023-03-15T22:51:07.329Z,7.30
2023-03-15T22:53:36.015Z,7.30
2023-03-15T22:56:05.006Z,7.20
2023-03-15T22:58:33.476Z,7.30
2023-03-15T23:01:03.381Z,7.30
2023-03-15T23:03:31.671Z,7.20
2023-03-15T23:06:00.561Z,7.20
2023-03-15T23:08:28.964Z,7.10
2023-03-15T23:10:58.552Z,7.10
2023-03-15T23:13:26.990Z,7.20
2023-03-15T23:15:55.473Z,7.20
2023-03-15T23:18:25.090Z,7.30
2023-03-15T23:20:53.545Z,7.20
2023-03-15T23:23:21.906Z,7.10
2023-03-15T23:25:54.069Z,7.20
2023-03-15T23:28:24.471Z,7.20
2023-03-15T23:30:53.122Z,7.30
2023-03-15T23:33:21.287Z,7.40
2023-03-15T23:35:51.427Z,7.40
2023-03-15T23:38:19.618Z,7.50
2023-03-15T23:40:55.040Z,7.50
2023-03-15T23:43:23.415Z,7.50
2023-03-15T23:45:57.124Z,7.40
2023-03-15T23:48:25.311Z,7.30
2023-03-15T23:50:55.716Z,7.30
2023-03-15T23:53:25.653Z,7.40
2023-03-15T23:55:54.077Z,7.40
2023-03-15T23:58:22.639Z,7.30
